Startpagina
METAR-TAF:

METAR-TAF

Vliegvelden :

Dubai, Verenigde Arabische Emiraten

Dubai International Airport

breedte: 25-15-10N, lengte: 055-21-52E, hoogte: 8 m

Actueel weer

Dit bericht is 1 uur en het 8 minuten geleden gemaakt, om 01:00 UTC
Wind 4 kt uit het noordoosten, variërend tussen het noordnoordoosten en het oosten
Temperatuur 34°C
Vochtigheid 12%
Druk 1005 hPa
Zicht 10 km of meer
geen wolken onder 1500 m en geen cumulonimbus

METAR: OMDB 230100Z 05004KT 020V100 CAVOK 34/01 Q1005 NOSIG

Tijdstip: 06:08 (02:08 UTC)

Verwachting

Dit bericht is 3 uur en het 9 minuten geleden gemaakt, om 22:59 UTC
Verwachting geldig van 23 om 00 UTC tot 24 om 06 UTC
Wind 7 kt uit het oosten
Zicht 10 km of meer
geen wolken onder 1500 m en geen cumulonimbus
Wijzigt naar
van 23 om 08 UTC tot 23 om 10 UTC
Wind 14 kt uit het noorden
Wijzigt naar
van 23 om 15 UTC tot 23 om 17 UTC
Wind 5 kt uit het oosten

TAF: OMDB 222259Z 2300/2406 10007KT CAVOK BECMG 2308/2310 35014KT BECMG 2315/2317 09005KT

Waarnemingen en weersverwachtingen van meer dan 4000 vliegvelden (METAR en TAF).

De beschikbare stations zijn de gele en rode punten op de kaart.

Ga met uw muis naar het station om de naam te zien.

Klik dan om waarnemingen en weersverwachtingen te zien.

kaart wijzigen: klik op de groene knoppen met een zwart kruis om in te zoomen, op de groene knop met een streepje om uit te zoomen of op de groene pijlen voor aangrenzende kaarten.


METAR-TAF: